Time;durP1;ratioP1;P1;durP2;ratioP2;P2;SDS_P1;SDS_P2;PMS_P1;PMS_P2;Temp;Humidity;BMP_temperature;BMP_pressure;BME280_temperature;BME280_humidity;BME280_pressure;Samples;Min_cycle;Max_cycle;Signal;HPM_P1;HPM_P2
2022/11/12 00:00:34;;;;;;;15.18;11.93;;;;;;;11.10;57.71;103036.22;5074504;28;20059;-77
2022/11/12 00:03:20;;;;;;;15.60;11.85;;;;;;;11.13;58.01;103033.41;5068914;28;20071;-78
2022/11/12 00:06:10;;;;;;;15.93;10.45;;;;;;;11.16;57.52;103043.22;5054317;28;20103;-78
2022/11/12 00:08:55;;;;;;;16.75;10.38;;;;;;;11.17;57.63;103042.28;5055839;28;20052;-79
2022/11/12 00:11:40;;;;;;;14.20;10.68;;;;;;;11.17;57.89;103047.66;5074096;28;20060;-79
2022/11/12 00:14:27;;;;;;;13.93;9.32;;;;;;;11.17;57.62;103050.34;5074093;28;20637;-78
2022/11/12 00:17:12;;;;;;;13.20;9.48;;;;;;;11.17;57.52;103044.97;5074076;28;20446;-78
2022/11/12 00:19:57;;;;;;;13.10;9.63;;;;;;;11.17;57.47;103055.72;5074155;28;20612;-77
2022/11/12 00:22:42;;;;;;;12.02;9.20;;;;;;;11.18;57.61;103056.59;5072906;28;20109;-77
2022/11/12 00:25:28;;;;;;;13.23;9.88;;;;;;;11.18;57.58;103059.28;5073050;28;20047;-77
2022/11/12 00:28:13;;;;;;;14.88;9.30;;;;;;;11.18;57.83;103068.25;5043451;28;20068;-76
2022/11/12 00:30:58;;;;;;;13.13;9.23;;;;;;;11.19;57.60;103059.22;5053427;28;20521;-77
2022/11/12 00:33:43;;;;;;;13.07;9.43;;;;;;;11.18;57.60;103056.59;5038759;28;20134;-77
2022/11/12 00:36:29;;;;;;;15.85;9.65;;;;;;;11.16;57.44;103045.03;5068930;28;20072;-78
2022/11/12 00:39:15;;;;;;;13.57;9.15;;;;;;;11.14;57.50;103050.44;5053794;28;20059;-78
2022/11/12 00:42:00;;;;;;;12.55;9.55;;;;;;;11.12;57.72;103050.50;5053330;28;20419;-78
2022/11/12 00:44:50;;;;;;;11.75;8.65;;;;;;;11.09;57.69;103045.22;5055784;28;20071;-79
2022/11/12 00:47:35;;;;;;;11.95;9.25;;;;;;;11.09;57.71;103045.22;5073572;28;20046;-78
2022/11/12 00:50:20;;;;;;;13.32;8.98;;;;;;;11.09;57.71;103036.28;5058471;28;20052;-77
2022/11/12 00:53:05;;;;;;;11.93;9.48;;;;;;;11.08;57.51;103047.97;5073492;28;20059;-77
2022/11/12 00:56:10;;;;;;;10.35;8.68;;;;;;;11.00;57.39;103050.97;5073554;28;20049;-78
2022/11/12 00:58:56;;;;;;;9.45;7.32;;;;;;;10.94;57.44;103053.88;5053286;28;20056;-78
2022/11/12 01:01:42;;;;;;;10.73;7.25;;;;;;;10.86;57.33;103049.72;5052768;28;20517;-78
2022/11/12 01:04:28;;;;;;;9.10;6.80;;;;;;;10.81;57.29;103053.47;5054036;28;20055;-78
2022/11/12 01:07:14;;;;;;;8.95;7.60;;;;;;;10.77;57.11;103049.13;5057942;28;20290;-81
2022/11/12 01:09:59;;;;;;;12.23;7.70;;;;;;;10.73;57.25;103039.44;5073184;28;20063;-81
2022/11/12 01:12:46;;;;;;;9.60;7.40;;;;;;;10.71;57.32;103041.28;5072765;28;20064;-80
2022/11/12 01:15:31;;;;;;;13.00;8.17;;;;;;;10.70;57.17;103038.66;5063491;28;20060;-79
2022/11/12 01:18:16;;;;;;;10.93;8.45;;;;;;;10.69;57.21;103035.09;5053272;28;20052;-79
2022/11/12 01:21:03;;;;;;;12.07;8.38;;;;;;;10.68;56.97;103044.09;5052911;28;20134;-80
2022/11/12 01:23:48;;;;;;;11.45;8.18;;;;;;;10.68;57.03;103046.78;5038038;28;20056;-80
2022/11/12 01:26:34;;;;;;;11.18;8.88;;;;;;;10.67;57.27;103042.34;5053508;28;20052;-80
2022/11/12 01:29:19;;;;;;;14.38;9.02;;;;;;;10.65;57.51;103030.78;5063767;28;20130;-80
2022/11/12 01:32:04;;;;;;;11.27;8.52;;;;;;;10.64;57.26;103022.75;5053168;28;20070;-78
2022/11/12 01:34:53;;;;;;;11.18;8.73;;;;;;;10.64;57.35;103023.66;5037748;28;20064;-77
2022/11/12 01:37:38;;;;;;;13.15;8.60;;;;;;;10.64;57.14;103018.28;5052615;28;20064;-77
2022/11/12 01:40:24;;;;;;;13.15;9.45;;;;;;;10.63;57.41;103027.25;5069948;28;20055;-78
2022/11/12 01:43:12;;;;;;;11.35;7.95;;;;;;;10.62;57.31;103021.94;5072364;28;20047;-78
2022/11/12 01:46:01;;;;;;;14.68;9.50;;;;;;;10.58;57.44;103023.88;5072138;28;20051;-81
2022/11/12 01:48:54;;;;;;;11.52;8.30;;;;;;;10.53;57.41;103024.97;5072432;28;20059;-80
2022/11/12 01:51:43;;;;;;;7.53;6.72;;;;;;;10.46;57.26;103027.00;5062777;28;20055;-77
2022/11/12 01:54:31;;;;;;;9.73;6.32;;;;;;;10.37;57.30;103024.59;5052316;28;20730;-77
2022/11/12 01:57:25;;;;;;;6.85;5.95;;;;;;;10.30;57.22;103015.88;5051570;28;20411;-81
2022/11/12 02:00:16;;;;;;;6.80;5.80;;;;;;;10.27;56.97;103026.75;5052037;28;20055;-77
2022/11/12 02:03:07;;;;;;;7.50;6.28;;;;;;;10.27;57.06;103023.19;5056372;28;20597;-77
2022/11/12 02:06:03;;;;;;;7.97;6.75;;;;;;;10.27;57.29;103024.06;5072128;28;20471;-77
2022/11/12 02:08:49;;;;;;;;;;;;;;;10.26;57.29;103021.44;5057413;28;20442;-78
2022/11/12 02:11:34;;;;;;;8.30;5.63;;;;;;;10.28;57.16;103017.75;5071771;28;19943;-81
2022/11/12 02:14:24;;;;;;;7.72;6.25;;;;;;;10.18;57.09;103017.16;5070640;28;20186;-78
2022/11/12 02:17:09;;;;;;;9.43;6.63;;;;;;;10.12;57.27;103020.06;5051878;28;20111;-76
2022/11/12 02:19:58;;;;;;;8.55;6.65;;;;;;;10.06;57.27;103020.28;5036844;28;20056;-81
2022/11/12 02:22:43;;;;;;;8.32;6.50;;;;;;;10.02;57.09;103017.75;5036706;28;20134;-78
2022/11/12 02:25:34;;;;;;;8.73;6.32;;;;;;;9.97;57.09;103034.00;5054623;28;20059;-79
2022/11/12 02:28:20;;;;;;;9.23;6.22;;;;;;;9.90;56.99;103020.84;5052345;28;20453;-80
2022/11/12 02:31:05;;;;;;;9.90;6.85;;;;;;;9.85;57.25;103027.25;5051608;28;20115;-80
2022/11/12 02:33:50;;;;;;;7.73;6.93;;;;;;;9.82;57.08;103016.63;5051953;28;20123;-78
2022/11/12 02:36:37;;;;;;;10.02;7.20;;;;;;;9.78;57.14;103019.47;5052886;28;20134;-77
2022/11/12 02:39:22;;;;;;;8.45;7.07;;;;;;;9.68;57.15;103015.31;5036549;28;20060;-80
2022/11/12 02:42:08;;;;;;;8.00;6.93;;;;;;;9.64;57.10;103025.25;5051428;28;20126;-82
2022/11/12 02:44:53;;;;;;;8.20;6.82;;;;;;;9.62;57.03;103024.41;5051462;28;20168;-82
2022/11/12 02:47:38;;;;;;;7.50;6.70;;;;;;;9.62;57.15;103023.53;5054532;28;20101;-82
2022/11/12 02:50:24;;;;;;;8.60;7.40;;;;;;;9.61;57.21;103017.28;5071572;28;20181;-81
2022/11/12 02:53:09;;;;;;;9.30;6.80;;;;;;;9.62;57.20;103015.50;5056262;28;20403;-81
2022/11/12 02:55:55;;;;;;;8.30;7.20;;;;;;;9.61;57.31;103006.56;5071964;28;20056;-79
2022/11/12 02:58:40;;;;;;;9.68;7.20;;;;;;;9.62;57.23;103013.69;5071079;28;20526;-80
2022/11/12 03:01:25;;;;;;;9.23;7.55;;;;;;;9.63;57.50;103004.72;5050114;28;20376;-83
2022/11/12 03:04:10;;;;;;;7.93;6.90;;;;;;;9.65;57.24;103010.03;5036273;28;20785;-82
2022/11/12 03:06:55;;;;;;;11.43;7.75;;;;;;;9.67;57.27;103011.75;5051414;28;20055;-83
2022/11/12 03:09:41;;;;;;;7.70;6.50;;;;;;;9.67;57.34;103008.19;5058781;28;20131;-83
2022/11/12 03:12:25;;;;;;;6.18;5.57;;;;;;;9.61;56.97;103005.69;5075449;28;20078;-81
2022/11/12 03:15:16;;;;;;;9.63;6.68;;;;;;;9.50;57.09;103006.91;5075445;28;20105;-82
2022/11/12 03:18:02;;;;;;;10.15;8.10;;;;;;;9.44;57.09;103019.63;5054399;28;20044;-82
2022/11/12 03:20:50;;;;;;;8.90;7.13;;;;;;;9.41;57.14;103012.56;5054826;28;20060;-83
2022/11/12 03:23:35;;;;;;;10.73;7.72;;;;;;;9.43;57.34;103016.09;5039984;28;20052;-82
2022/11/12 03:26:22;;;;;;;9.10;7.15;;;;;;;9.45;57.43;103008.88;5055059;28;20052;-83
2022/11/12 03:29:07;;;;;;;7.85;6.80;;;;;;;9.47;57.17;103003.44;5054630;28;20059;-83
2022/11/12 03:31:52;;;;;;;8.18;6.55;;;;;;;9.48;57.21;102997.16;5060983;28;20508;-80
2022/11/12 03:34:38;;;;;;;9.38;7.30;;;;;;;9.48;57.17;103006.09;5074808;28;20048;-80
2022/11/12 03:37:23;;;;;;;9.35;7.55;;;;;;;9.49;57.21;103004.28;5074987;28;20063;-82
2022/11/12 03:40:08;;;;;;;8.95;7.63;;;;;;;9.48;57.49;103007.88;5059510;28;20083;-81
2022/11/12 03:42:54;;;;;;;11.00;7.18;;;;;;;9.44;57.07;103009.78;5059242;28;20052;-83
2022/11/12 03:45:40;;;;;;;;;;;;;;;9.40;57.08;103015.31;5074950;28;20182;-82
2022/11/12 03:48:25;;;;;;;9.27;7.63;;;;;;;9.44;57.22;103011.59;5074877;28;19928;-81
2022/11/12 03:51:15;;;;;;;11.32;8.57;;;;;;;9.43;57.28;103010.72;5060259;28;20080;-83
2022/11/12 03:54:00;;;;;;;10.90;8.75;;;;;;;9.45;57.12;103010.66;5070575;28;20263;-82
2022/11/12 03:56:46;;;;;;;13.77;8.38;;;;;;;9.41;57.03;103009.88;5055235;28;20138;-83
2022/11/12 03:59:31;;;;;;;9.40;7.93;;;;;;;9.38;57.08;103015.34;5033479;28;20060;-80
2022/11/12 04:02:16;;;;;;;11.50;7.83;;;;;;;9.35;57.20;103019.94;5034203;28;20052;-81
2022/11/12 04:11:19;;;;;;;10.38;8.07;;;;;;;9.23;57.09;103014.03;5054259;28;20056;-80
2022/11/12 04:14:05;;;;;;;13.20;9.10;;;;;;;9.23;57.44;103003.31;5054351;28;20514;-79
2022/11/12 04:22:58;;;;;;;12.30;8.55;;;;;;;9.25;57.12;103003.25;5034223;28;20055;-79
2022/11/12 04:31:52;;;;;;;13.98;8.85;;;;;;;9.29;57.24;103002.22;5053454;28;20055;-80
2022/11/12 04:34:41;;;;;;;13.87;8.30;;;;;;;9.27;57.20;103004.09;5053958;28;20084;-80
2022/11/12 04:37:43;;;;;;;10.32;7.63;;;;;;;9.29;57.25;102998.66;5054416;28;20134;-80
2022/11/12 04:46:36;;;;;;;13.55;9.13;;;;;;;9.27;57.33;103001.41;5033614;28;20158;-80
2022/11/12 04:49:21;;;;;;;12.30;8.73;;;;;;;9.26;57.35;102999.66;5032904;28;20049;-80
2022/11/12 04:52:06;;;;;;;13.93;9.60;;;;;;;9.27;57.14;102996.03;5033017;28;20092;-80
2022/11/12 04:54:53;;;;;;;12.68;9.52;;;;;;;9.26;57.28;102999.66;5033317;28;20055;-79
2022/11/12 04:57:39;;;;;;;14.40;10.30;;;;;;;9.26;57.20;102993.41;5033356;28;20060;-79
2022/11/12 05:00:24;;;;;;;13.27;9.23;;;;;;;9.23;57.36;102992.56;5059989;28;20146;-81
2022/11/12 05:03:09;;;;;;;9.57;8.27;;;;;;;9.20;57.13;102994.47;5066317;28;20052;-80
2022/11/12 05:06:02;;;;;;;;;;;;;;;9.16;57.25;102991.00;5045026;28;20064;-81
2022/11/12 05:08:47;;;;;;;13.98;8.77;;;;;;;9.17;57.31;102978.50;5053214;28;20286;-79
2022/11/12 05:11:32;;;;;;;11.75;8.32;;;;;;;9.14;57.07;102979.47;5053273;28;20114;-79
2022/11/12 05:14:23;;;;;;;12.17;8.50;;;;;;;9.15;57.29;102977.66;5064305;28;20051;-79
2022/11/12 05:17:08;;;;;;;11.90;8.65;;;;;;;9.14;57.15;102973.22;5072689;28;20795;-79
2022/11/12 05:19:53;;;;;;;13.27;9.10;;;;;;;9.10;57.20;102966.19;5050317;28;20052;-79
2022/11/12 05:22:38;;;;;;;10.80;8.15;;;;;;;9.04;57.35;102972.63;5052524;28;20063;-80
2022/11/12 05:25:43;;;;;;;13.77;8.93;;;;;;;9.05;57.42;102963.66;5053425;28;20080;-81
2022/11/12 05:28:28;;;;;;;13.70;8.45;;;;;;;9.04;57.32;102964.59;5037586;28;20557;-81
2022/11/12 05:31:13;;;;;;;12.85;8.95;;;;;;;9.06;57.39;102967.22;5052839;28;20043;-78
2022/11/12 05:33:59;;;;;;;11.30;8.63;;;;;;;9.07;57.45;102960.94;5072645;28;20076;-79
2022/11/12 05:36:45;;;;;;;13.43;8.70;;;;;;;9.06;57.38;102951.13;5072229;28;20130;-81
2022/11/12 05:39:30;;;;;;;12.82;8.88;;;;;;;9.04;57.46;102963.72;5070834;28;20122;-80
2022/11/12 05:42:15;;;;;;;11.52;8.15;;;;;;;9.04;57.41;102956.56;5052526;28;20408;-80
2022/11/12 05:45:02;;;;;;;11.25;7.95;;;;;;;9.06;57.53;102949.34;5052215;28;20079;-77
2022/11/12 05:47:47;;;;;;;14.40;7.70;;;;;;;9.08;57.36;102946.59;5052451;28;20056;-78
2022/11/12 05:50:32;;;;;;;9.68;7.30;;;;;;;9.10;57.61;102955.47;5061096;28;20054;-78
2022/11/12 05:53:37;;;;;;;9.68;7.53;;;;;;;9.12;57.54;102957.19;5072117;28;20052;-79
2022/11/12 05:56:23;;;;;;;13.05;7.53;;;;;;;9.14;57.25;102947.28;5072036;28;20382;-79
2022/11/12 05:59:11;;;;;;;11.10;7.50;;;;;;;9.16;57.48;102949.94;5071982;28;20460;-78
2022/11/12 06:01:57;;;;;;;13.93;7.65;;;;;;;9.17;57.59;102951.69;5068650;28;20051;-78
2022/11/12 06:04:43;;;;;;;10.50;7.18;;;;;;;9.18;57.43;102950.75;5051876;28;20060;-80
2022/11/12 06:07:28;;;;;;;14.07;7.95;;;;;;;9.18;57.67;102957.00;5051765;28;20048;-79
2022/11/12 06:10:14;;;;;;;10.20;7.18;;;;;;;9.20;57.43;102959.63;5051889;28;20127;-79
2022/11/12 06:13:05;;;;;;;10.35;6.55;;;;;;;9.19;57.54;102961.44;5051478;28;20047;-78
2022/11/12 06:15:51;;;;;;;10.27;7.00;;;;;;;9.18;57.80;102961.47;5051968;28;20470;-78
2022/11/12 06:18:37;;;;;;;13.77;7.18;;;;;;;9.18;57.45;102969.53;5051642;28;20525;-78
2022/11/12 06:21:22;;;;;;;11.85;7.05;;;;;;;9.16;57.27;102972.25;5045204;28;20052;-79
2022/11/12 06:24:08;;;;;;;11.45;6.72;;;;;;;9.15;57.24;102972.31;5069690;28;20044;-78
2022/11/12 06:26:54;;;;;;;11.07;6.82;;;;;;;9.12;57.12;102975.94;5071937;28;20051;-80
2022/11/12 06:29:39;;;;;;;11.65;6.15;;;;;;;9.09;57.31;102975.16;5071624;28;20050;-80
2022/11/12 06:32:24;;;;;;;9.07;6.43;;;;;;;9.08;57.14;102968.06;5071651;28;20043;-79
2022/11/12 06:35:12;;;;;;;11.55;6.38;;;;;;;9.05;57.30;102979.75;5072064;28;20133;-80
2022/11/12 06:37:57;;;;;;;9.85;6.72;;;;;;;9.03;57.04;102980.72;5071706;28;20125;-79
2022/11/12 06:40:42;;;;;;;10.10;7.23;;;;;;;9.01;57.15;102975.41;5073227;28;20056;-79
2022/11/12 06:43:29;;;;;;;10.10;7.37;;;;;;;8.99;57.30;102971.03;5072942;28;20133;-79
2022/11/12 06:46:15;;;;;;;10.23;7.20;;;;;;;8.95;57.10;102978.28;5064524;28;20135;-79
2022/11/12 06:49:01;;;;;;;12.95;7.15;;;;;;;8.91;57.47;102984.63;5051144;28;20140;-79
2022/11/12 06:51:49;;;;;;;10.23;6.30;;;;;;;8.86;57.21;102984.75;5051714;28;20051;-80
2022/11/12 06:54:35;;;;;;;7.22;6.25;;;;;;;8.81;57.32;102981.34;5051962;28;20122;-80
2022/11/12 06:57:21;;;;;;;11.18;6.53;;;;;;;8.75;57.28;102986.88;5036376;28;20060;-79
2022/11/12 07:00:08;;;;;;;10.15;6.60;;;;;;;8.69;57.29;102988.84;5051132;28;20510;-79
2022/11/12 07:02:53;;;;;;;8.48;6.35;;;;;;;8.67;57.32;102986.22;5060316;28;20402;-80
2022/11/12 07:05:40;;;;;;;10.73;7.22;;;;;;;8.67;57.36;102985.34;5070804;28;20098;-79
2022/11/12 07:08:25;;;;;;;10.02;6.20;;;;;;;8.67;57.51;102991.56;5071406;28;20055;-80
2022/11/12 07:11:11;;;;;;;9.55;7.28;;;;;;;8.67;57.53;102991.56;5069648;28;20055;-80
2022/11/12 07:13:56;;;;;;;8.98;6.53;;;;;;;8.70;57.42;102995.97;5071299;28;20044;-75
2022/11/12 07:16:41;;;;;;;13.57;7.50;;;;;;;8.73;57.58;102995.88;5069879;28;20071;-77
2022/11/12 07:19:26;;;;;;;11.88;8.07;;;;;;;8.75;57.52;102996.72;5044210;28;20056;-76
2022/11/12 07:22:11;;;;;;;11.63;8.32;;;;;;;8.75;57.86;102991.34;5051066;28;20328;-74
2022/11/12 07:24:59;;;;;;;12.43;8.13;;;;;;;8.72;57.62;102988.75;5051476;28;20060;-82
2022/11/12 07:27:44;;;;;;;8.88;6.90;;;;;;;8.67;57.75;102994.25;5051213;28;20134;-77
2022/11/12 07:30:29;;;;;;;12.07;7.97;;;;;;;8.62;57.63;102998.00;5051758;28;20048;-78
2022/11/12 07:33:14;;;;;;;8.52;6.97;;;;;;;8.56;57.73;103007.06;5051759;28;20052;-77
2022/11/12 07:36:07;;;;;;;10.75;7.38;;;;;;;8.53;57.84;103007.16;5036006;28;20430;-78
2022/11/12 07:38:53;;;;;;;12.98;7.47;;;;;;;8.50;57.85;103013.47;5052243;28;20048;-77
2022/11/12 07:41:38;;;;;;;12.20;7.50;;;;;;;8.52;57.93;103016.13;5050521;28;20044;-77
2022/11/12 07:44:28;;;;;;;12.55;7.55;;;;;;;8.57;58.15;103011.50;5051052;28;20052;-78
2022/11/12 07:47:13;;;;;;;11.55;7.85;;;;;;;8.64;58.30;103015.78;5055331;28;20178;-78
2022/11/12 07:49:59;;;;;;;12.05;7.07;;;;;;;8.72;58.45;103008.41;5070796;28;20524;-78
2022/11/12 07:52:44;;;;;;;12.07;8.10;;;;;;;8.84;58.57;103008.03;5070857;28;20059;-77
2022/11/12 07:55:30;;;;;;;8.90;7.18;;;;;;;8.93;58.34;103017.63;5064649;28;20064;-77
2022/11/12 07:58:15;;;;;;;9.63;7.10;;;;;;;9.00;58.33;103015.66;5054357;28;20048;-66
2022/11/12 08:01:08;;;;;;;12.88;8.48;;;;;;;9.07;58.47;103018.09;5055000;28;20454;-67
2022/11/12 08:03:54;;;;;;;11.85;8.30;;;;;;;9.12;58.38;103016.16;5055084;28;20054;-68
2022/11/12 08:06:39;;;;;;;12.82;8.82;;;;;;;9.18;58.29;103017.78;5054491;28;20064;-66
2022/11/12 08:09:24;;;;;;;10.40;7.80;;;;;;;9.21;58.13;103017.69;5054814;28;20060;-68
2022/11/12 08:12:09;;;;;;;14.25;8.82;;;;;;;9.27;58.41;103020.16;5054081;28;20416;-68
2022/11/12 08:14:55;;;;;;;12.03;8.23;;;;;;;9.33;58.41;103019.97;5054031;28;20056;-68
2022/11/12 08:17:40;;;;;;;13.15;9.30;;;;;;;9.39;58.32;103019.78;5054782;28;20286;-67
2022/11/12 08:20:25;;;;;;;14.57;9.32;;;;;;;9.46;58.34;103020.47;5054106;28;20060;-68
2022/11/12 08:23:11;;;;;;;13.70;9.60;;;;;;;9.53;58.67;103019.34;5052044;28;20059;-69
2022/11/12 08:25:58;;;;;;;13.87;9.10;;;;;;;9.59;58.84;103024.50;5052192;28;20056;-68
2022/11/12 08:28:44;;;;;;;16.05;10.55;;;;;;;9.67;58.78;103026.97;5052529;28;20107;-68
2022/11/12 08:31:29;;;;;;;13.57;9.57;;;;;;;9.74;58.95;103029.41;5050844;28;20134;-68
2022/11/12 08:34:24;;;;;;;13.52;9.35;;;;;;;9.86;59.23;103030.81;5052274;28;20127;-69
2022/11/12 08:37:09;;;;;;;14.40;9.30;;;;;;;9.98;59.33;103026.84;5053357;28;20415;-67
2022/11/12 08:39:54;;;;;;;13.93;9.30;;;;;;;10.12;59.21;103029.94;5056113;28;20114;-70
2022/11/12 08:42:39;;;;;;;13.13;8.70;;;;;;;10.27;59.46;103024.06;5067931;28;20171;-66
2022/11/12 08:45:28;;;;;;;12.32;8.52;;;;;;;10.46;59.63;103030.56;5055399;28;20051;-66
2022/11/12 08:48:14;;;;;;;11.73;8.52;;;;;;;10.65;59.61;103029.91;5055167;28;20060;-66
2022/11/12 08:51:01;;;;;;;12.07;7.68;;;;;;;10.85;59.49;103030.03;5055061;28;20048;-65
2022/11/12 08:53:46;;;;;;;11.98;8.82;;;;;;;11.05;59.87;103035.53;5053446;28;20099;-65
2022/11/12 08:56:33;;;;;;;12.13;8.15;;;;;;;11.24;59.68;103033.03;5053474;28;20056;-65
2022/11/12 08:59:18;;;;;;;13.68;7.50;;;;;;;11.44;59.45;103033.13;5052912;28;20199;-66
2022/11/12 09:02:03;;;;;;;12.52;8.00;;;;;;;11.65;59.48;103033.19;5053651;28;20545;-67
2022/11/12 09:04:50;;;;;;;12.93;7.95;;;;;;;11.86;59.27;103032.34;5049508;28;20055;-66
2022/11/12 09:07:34;;;;;;;14.43;7.75;;;;;;;12.06;59.18;103028.84;5065227;28;20056;-66
2022/11/12 09:10:35;;;;;;;9.45;7.40;;;;;;;12.29;59.29;103041.31;5071550;28;20094;-66
2022/11/12 09:13:20;;;;;;;;;;;;;;;12.44;58.98;103050.56;5073193;28;20398;-66
2022/11/12 09:16:08;;;;;;;10.32;7.65;;;;;;;12.62;58.88;103047.91;5071895;28;20057;-66
2022/11/12 09:18:53;;;;;;;11.15;7.70;;;;;;;12.77;59.08;103045.50;5068357;28;20043;-66
2022/11/12 09:21:38;;;;;;;11.50;7.85;;;;;;;12.89;58.69;103045.81;5055157;28;20067;-67
2022/11/12 09:24:26;;;;;;;11.63;7.90;;;;;;;13.05;58.35;103040.59;5042289;28;20083;-67
2022/11/12 09:27:12;;;;;;;10.10;7.75;;;;;;;13.20;58.51;103039.91;5068773;28;20060;-66
2022/11/12 09:29:57;;;;;;;11.27;7.72;;;;;;;13.37;58.52;103033.69;5053829;28;20503;-66
2022/11/12 09:32:42;;;;;;;9.88;7.57;;;;;;;13.58;58.41;103034.50;5052801;28;20132;-66
2022/11/12 09:35:30;;;;;;;13.10;8.23;;;;;;;13.78;57.97;103039.81;5060597;28;20403;-66
2022/11/12 09:38:17;;;;;;;11.48;7.88;;;;;;;13.95;58.23;103041.66;5072796;28;20055;-66
2022/11/12 09:41:15;;;;;;;11.52;7.90;;;;;;;14.13;57.97;103042.59;5070334;28;20171;-67
2022/11/12 09:44:24;;;;;;;12.23;7.90;;;;;;;14.28;57.69;103039.09;5072609;28;20059;-67
2022/11/12 09:47:26;;;;;;;10.15;7.88;;;;;;;14.45;57.11;103044.53;5052163;28;20530;-66
2022/11/12 09:50:24;;;;;;;10.30;7.85;;;;;;;14.61;57.32;103040.06;5052654;28;20182;-66
2022/11/12 09:53:21;;;;;;;14.65;7.90;;;;;;;14.80;56.68;103039.94;5052967;28;20048;-66
2022/11/12 09:56:11;;;;;;;9.60;7.75;;;;;;;14.98;56.56;103035.38;5051555;28;20054;-66
2022/11/12 09:58:56;;;;;;;9.93;8.07;;;;;;;15.10;56.33;103037.41;5052771;28;20430;-67
2022/11/12 10:02:10;;;;;;;9.27;7.95;;;;;;;15.22;56.55;103034.03;5051756;28;20056;-66
2022/11/12 10:05:22;;;;;;;10.65;7.80;;;;;;;15.30;55.97;103025.47;5056581;28;20055;-66
2022/11/12 10:08:27;;;;;;;11.82;7.93;;;;;;;15.37;56.08;103023.28;5069813;28;20580;-66
2022/11/12 10:18:46;;;;;;;14.90;8.50;;;;;;;15.81;55.98;103013.53;5070845;28;20441;-66
2022/11/12 10:21:45;;;;;;;11.27;8.05;;;;;;;15.96;55.76;103011.75;5071634;28;20157;-66
2022/11/12 10:24:38;;;;;;;10.68;7.32;;;;;;;16.11;55.55;103010.84;5052642;28;20177;-66
2022/11/12 10:27:33;;;;;;;11.27;8.45;;;;;;;16.26;55.72;103003.63;5053075;28;20179;-66
2022/11/12 10:30:20;;;;;;;11.00;8.52;;;;;;;16.38;55.32;103000.19;5051993;28;20391;-67
2022/11/12 10:33:12;;;;;;;12.20;8.55;;;;;;;16.47;55.24;103009.59;5051312;28;20139;-66
2022/11/12 10:36:26;;;;;;;9.98;8.60;;;;;;;16.51;55.05;103009.31;5049454;28;20056;-66
2022/11/12 10:39:50;;;;;;;10.00;8.63;;;;;;;16.60;55.30;102993.44;5052191;28;20060;-67
2022/11/12 10:42:55;;;;;;;12.05;8.63;;;;;;;16.69;55.12;102992.88;5051802;28;20052;-67
2022/11/12 10:45:42;;;;;;;10.18;8.52;;;;;;;16.76;55.01;102994.25;5037650;28;20048;-66
2022/11/12 10:48:32;;;;;;;10.63;8.20;;;;;;;16.80;54.79;102982.22;5055602;28;20618;-66
2022/11/12 10:51:25;;;;;;;9.82;8.38;;;;;;;16.87;54.70;102982.69;5051779;28;20188;-69
2022/11/12 10:54:37;;;;;;;13.15;9.10;;;;;;;16.93;54.90;102972.31;5056737;28;20055;-67
2022/11/12 10:57:24;;;;;;;9.27;8.23;;;;;;;17.03;54.71;102968.03;5069516;28;20544;-67
2022/11/12 11:00:13;;;;;;;12.60;8.75;;;;;;;17.08;54.57;102974.06;5070396;28;20407;-67
2022/11/12 11:03:02;;;;;;;11.35;8.80;;;;;;;17.14;54.61;102973.69;5071458;28;20701;-68
2022/11/12 11:05:47;;;;;;;10.43;8.40;;;;;;;17.20;54.23;102968.81;5067992;28;20183;-67
2022/11/12 11:08:43;;;;;;;10.27;8.77;;;;;;;17.27;54.39;102970.16;5043575;28;20054;-67
2022/11/12 11:11:30;;;;;;;12.02;8.77;;;;;;;17.35;54.09;102968.69;5069522;28;20051;-67
2022/11/12 11:17:08;;;;;;;10.48;8.50;;;;;;;17.52;53.69;102967.56;5069229;28;20182;-67
2022/11/12 11:19:53;;;;;;;10.20;8.05;;;;;;;17.61;53.84;102963.34;5070650;28;20051;-68
2022/11/12 11:22:52;;;;;;;8.77;7.70;;;;;;;17.68;53.66;102964.72;5071981;28;20047;-72
2022/11/12 11:25:42;;;;;;;9.02;8.13;;;;;;;17.73;53.47;102963.44;5068965;28;20060;-68
2022/11/12 11:28:37;;;;;;;8.95;7.68;;;;;;;17.81;53.07;102957.47;5070228;28;20043;-68
2022/11/12 11:31:36;;;;;;;8.82;6.70;;;;;;;17.94;53.06;102958.41;5074601;28;20054;-66
2022/11/12 11:34:22;;;;;;;9.63;7.35;;;;;;;18.06;52.90;102951.25;5074349;28;20055;-69
2022/11/12 11:37:23;;;;;;;7.90;7.10;;;;;;;18.16;52.54;102948.75;5072297;28;20055;-66
2022/11/12 11:40:28;;;;;;;9.05;8.10;;;;;;;18.29;52.67;102955.94;5074640;28;20059;-66
2022/11/12 11:43:25;;;;;;;9.45;7.63;;;;;;;18.40;52.34;102949.75;5074812;28;20129;-67
2022/11/12 11:46:32;;;;;;;8.25;7.15;;;;;;;18.50;52.58;102941.81;5069552;28;20060;-69
2022/11/12 11:49:17;;;;;;;;;;;;;;;18.59;52.60;102944.78;5055039;28;20052;-70
2022/11/12 11:52:04;;;;;;;8.05;7.18;;;;;;;18.70;52.08;102941.31;5055190;28;19935;-70
2022/11/12 11:55:20;;;;;;;9.13;7.32;;;;;;;18.78;51.95;102938.03;5062638;28;20063;-71
2022/11/12 11:58:36;;;;;;;8.50;7.33;;;;;;;18.83;51.50;102935.84;5067356;28;20182;-71
2022/11/12 12:01:33;;;;;;;10.27;7.40;;;;;;;18.84;51.65;102934.84;5052807;28;20521;-71
2022/11/12 12:04:36;;;;;;;10.23;8.38;;;;;;;18.87;51.50;102940.94;5047536;28;20555;-70
2022/11/12 12:07:43;;;;;;;8.50;7.60;;;;;;;18.92;51.50;102943.34;5049566;28;20166;-71
2022/11/12 12:10:34;;;;;;;10.80;7.72;;;;;;;19.02;51.42;102944.41;5034509;28;20057;-70
2022/11/12 12:13:52;;;;;;;10.55;8.23;;;;;;;19.11;51.44;102941.00;5033817;28;20148;-71
2022/11/12 12:16:54;;;;;;;9.40;8.43;;;;;;;19.19;51.29;102935.84;5040920;28;20422;-71
2022/11/12 12:20:12;;;;;;;8.73;7.82;;;;;;;19.27;51.05;102921.66;5052135;28;20167;-70
2022/11/12 12:23:32;;;;;;;9.15;8.25;;;;;;;19.35;50.44;102911.94;5048404;28;20060;-71
2022/11/12 12:26:23;;;;;;;9.43;7.97;;;;;;;19.43;50.58;102915.94;5033990;28;20286;-71
2022/11/12 12:29:17;;;;;;;9.35;8.35;;;;;;;19.47;50.49;102910.16;5033739;28;20056;-70
2022/11/12 12:32:11;;;;;;;9.27;7.97;;;;;;;19.51;50.37;102903.47;5033817;28;20523;-72
2022/11/12 12:35:15;;;;;;;10.50;7.70;;;;;;;19.57;50.03;102907.63;5033857;28;20498;-73
2022/11/12 12:38:14;;;;;;;11.30;8.57;;;;;;;19.64;49.86;102908.88;5033917;28;20135;-74
2022/11/12 12:41:18;;;;;;;9.77;8.07;;;;;;;19.72;49.89;102898.25;5033618;28;20143;-73
2022/11/12 12:44:07;;;;;;;8.98;8.07;;;;;;;19.79;49.55;102910.44;5018139;28;20527;-73
2022/11/12 12:46:57;;;;;;;9.75;8.05;;;;;;;19.85;49.29;102901.78;5039512;28;20558;-73
2022/11/12 12:49:45;;;;;;;8.77;7.88;;;;;;;19.93;48.93;102904.78;5051687;28;20068;-72
2022/11/12 12:52:59;;;;;;;10.40;7.95;;;;;;;20.03;48.72;102885.81;5053098;28;20059;-73
2022/11/12 12:55:50;;;;;;;9.93;7.78;;;;;;;20.20;48.48;102884.53;5037984;28;20055;-73
2022/11/12 12:58:44;;;;;;;10.50;7.80;;;;;;;20.32;48.50;102886.25;5050727;28;20056;-73
2022/11/12 13:01:33;;;;;;;8.15;7.35;;;;;;;20.40;48.27;102877.50;5061268;28;20113;-72
2022/11/12 13:04:51;;;;;;;9.13;7.47;;;;;;;20.40;47.80;102878.38;5072995;28;20415;-74
2022/11/12 13:07:43;;;;;;;8.63;7.68;;;;;;;20.41;47.94;102865.59;5071962;28;20060;-73
2022/11/12 13:10:40;;;;;;;9.30;7.50;;;;;;;20.39;47.79;102875.72;5072616;28;20137;-73
2022/11/12 13:13:27;;;;;;;9.50;7.82;;;;;;;20.38;47.93;102880.31;5072700;28;20516;-72
2022/11/12 13:16:51;;;;;;;9.60;8.00;;;;;;;20.37;47.61;102866.78;5072973;28;20127;-73
2022/11/12 13:19:37;;;;;;;8.98;7.97;;;;;;;20.35;47.68;102861.47;5052852;28;20087;-72
2022/11/12 13:22:25;;;;;;;13.55;8.02;;;;;;;20.34;47.63;102864.31;5051918;28;20064;-73
2022/11/12 13:25:10;;;;;;;12.02;8.15;;;;;;;20.30;47.26;102855.50;5052894;28;20052;-73
2022/11/12 13:28:01;;;;;;;10.25;8.60;;;;;;;20.21;47.21;102857.13;5038042;28;20051;-72
2022/11/12 13:30:46;;;;;;;12.02;8.82;;;;;;;20.17;47.22;102858.34;5052369;28;20064;-73
2022/11/12 13:33:32;;;;;;;8.80;7.40;;;;;;;20.13;47.13;102856.00;5052529;28;20044;-73
2022/11/12 13:36:28;;;;;;;9.82;7.53;;;;;;;20.09;47.16;102855.38;5052401;28;20059;-73
2022/11/12 13:39:17;;;;;;;8.88;7.97;;;;;;;20.09;47.20;102857.22;5058593;28;20055;-73
2022/11/12 13:45:18;;;;;;;9.80;8.70;;;;;;;20.02;47.43;102848.63;5072411;28;20048;-73